createdAt,value
2016-12-30T00:00:43.137Z,9
2016-12-30T00:01:43.148Z,9
2016-12-30T00:02:43.135Z,10
2016-12-30T00:03:43.145Z,10
2016-12-30T00:04:43.129Z,9
2016-12-30T00:05:43.173Z,9
2016-12-30T00:06:43.137Z,9
2016-12-30T00:07:43.158Z,10
2016-12-30T00:08:43.141Z,10
2016-12-30T00:09:43.143Z,9
2016-12-30T00:10:43.138Z,9
2016-12-30T00:11:44.239Z,9
2016-12-30T00:12:43.401Z,9
2016-12-30T00:13:43.153Z,10
2016-12-30T00:14:43.160Z,9
2016-12-30T00:15:43.144Z,10
2016-12-30T00:16:43.150Z,9
2016-12-30T00:17:43.192Z,9
2016-12-30T00:18:43.176Z,10
2016-12-30T00:19:43.166Z,10
2016-12-30T00:20:43.155Z,9
2016-12-30T00:21:43.150Z,9
2016-12-30T00:22:43.149Z,9
2016-12-30T00:23:43.164Z,10
2016-12-30T00:24:43.163Z,10
2016-12-30T00:25:43.152Z,10
2016-12-30T00:26:43.157Z,9
2016-12-30T00:27:43.157Z,10
2016-12-30T00:28:43.158Z,9
2016-12-30T00:29:43.163Z,9
2016-12-30T00:30:43.156Z,9
2016-12-30T00:31:43.160Z,8
2016-12-30T00:32:43.173Z,9
2016-12-30T00:33:43.163Z,9
2016-12-30T00:34:43.169Z,9
2016-12-30T00:35:43.161Z,8
2016-12-30T00:36:43.178Z,9
2016-12-30T00:37:43.168Z,9
2016-12-30T00:38:43.168Z,9
2016-12-30T00:39:43.167Z,9
2016-12-30T00:40:43.172Z,9
2016-12-30T00:41:43.168Z,9
2016-12-30T00:42:43.174Z,9
2016-12-30T00:43:43.170Z,10
2016-12-30T00:44:43.171Z,9
2016-12-30T00:45:43.175Z,9
2016-12-30T00:46:43.170Z,8
2016-12-30T00:47:43.178Z,8
2016-12-30T00:48:43.171Z,9
2016-12-30T00:49:43.174Z,9
2016-12-30T00:50:43.181Z,8
2016-12-30T00:51:43.187Z,9
2016-12-30T00:52:43.179Z,9
2016-12-30T00:53:43.185Z,9
2016-12-30T00:54:43.179Z,9
2016-12-30T00:55:43.186Z,9
2016-12-30T00:56:43.186Z,9
2016-12-30T00:57:43.185Z,9
2016-12-30T00:58:43.183Z,9
2016-12-30T00:59:43.184Z,8
2016-12-30T01:00:43.191Z,9
2016-12-30T01:01:43.186Z,9
2016-12-30T01:02:43.193Z,8
2016-12-30T01:03:43.191Z,9
2016-12-30T01:04:43.191Z,9
2016-12-30T01:05:43.192Z,8
2016-12-30T01:06:43.188Z,8
2016-12-30T01:07:43.208Z,8
2016-12-30T01:08:43.203Z,8
2016-12-30T01:09:43.192Z,8
2016-12-30T01:10:43.203Z,9
2016-12-30T01:11:43.200Z,9
2016-12-30T01:12:43.196Z,9
2016-12-30T01:13:43.202Z,9
2016-12-30T01:14:43.202Z,9
2016-12-30T01:15:43.208Z,9
2016-12-30T01:16:43.201Z,8
2016-12-30T01:17:43.201Z,8
2016-12-30T01:18:43.202Z,9
2016-12-30T01:19:43.208Z,8
2016-12-30T01:20:43.207Z,9
2016-12-30T01:21:43.210Z,9
2016-12-30T01:22:43.209Z,8
2016-12-30T01:23:43.228Z,8
2016-12-30T01:24:43.276Z,8
2016-12-30T01:25:43.210Z,8
2016-12-30T01:26:43.217Z,9
2016-12-30T01:27:43.213Z,9
2016-12-30T01:28:43.219Z,8
2016-12-30T01:29:43.211Z,8
2016-12-30T01:30:43.218Z,9
2016-12-30T01:31:43.217Z,9
2016-12-30T01:32:43.223Z,9
2016-12-30T01:33:43.216Z,8
2016-12-30T01:34:43.242Z,8
2016-12-30T01:35:43.236Z,9
2016-12-30T01:36:43.226Z,9
2016-12-30T01:37:43.225Z,8
2016-12-30T01:38:43.231Z,9
2016-12-30T01:39:43.223Z,9
2016-12-30T01:40:43.244Z,9
2016-12-30T01:41:43.220Z,9
2016-12-30T01:42:43.227Z,8
2016-12-30T01:43:43.233Z,9
2016-12-30T01:44:43.229Z,8
2016-12-30T01:45:43.234Z,9
2016-12-30T01:46:43.234Z,8
2016-12-30T01:47:43.235Z,9
2016-12-30T01:48:43.231Z,9
2016-12-30T01:49:43.234Z,8
2016-12-30T01:50:43.245Z,9
2016-12-30T01:51:43.234Z,8
2016-12-30T01:52:43.231Z,9
2016-12-30T01:53:43.236Z,8
2016-12-30T01:54:43.238Z,8
2016-12-30T01:55:43.237Z,8
2016-12-30T01:56:43.242Z,8
2016-12-30T01:57:43.241Z,9
2016-12-30T01:58:43.240Z,9
2016-12-30T01:59:43.260Z,8
2016-12-30T02:00:43.256Z,9
2016-12-30T02:01:43.246Z,9
2016-12-30T02:02:43.255Z,8
2016-12-30T02:03:43.245Z,9
2016-12-30T02:04:43.252Z,9
2016-12-30T02:05:43.248Z,9
2016-12-30T02:06:43.250Z,9
2016-12-30T02:07:43.250Z,9
2016-12-30T02:08:43.250Z,9
2016-12-30T02:09:43.252Z,9
2016-12-30T02:10:43.253Z,9
2016-12-30T02:11:43.260Z,8
2016-12-30T02:12:43.253Z,9
2016-12-30T02:13:43.259Z,9
2016-12-30T02:14:43.260Z,8
2016-12-30T02:15:43.256Z,9
2016-12-30T02:16:43.262Z,8
2016-12-30T02:17:43.269Z,8
2016-12-30T02:18:43.261Z,8
2016-12-30T02:19:43.260Z,8
2016-12-30T02:20:43.262Z,8
2016-12-30T02:21:43.266Z,9
2016-12-30T02:22:43.261Z,9
2016-12-30T02:23:43.265Z,8
2016-12-30T02:24:43.272Z,8
2016-12-30T02:25:43.264Z,8
2016-12-30T02:26:43.272Z,8
2016-12-30T02:27:43.279Z,9
2016-12-30T02:28:43.269Z,8
2016-12-30T02:29:43.276Z,9
2016-12-30T02:30:43.267Z,9
2016-12-30T02:31:43.290Z,8
2016-12-30T02:32:43.274Z,9
2016-12-30T02:33:43.275Z,8
2016-12-30T02:34:43.280Z,8
2016-12-30T02:35:43.305Z,8
2016-12-30T02:36:43.285Z,9
2016-12-30T02:37:43.280Z,8
2016-12-30T02:38:43.283Z,9
2016-12-30T02:39:43.279Z,8
2016-12-30T02:40:43.280Z,8
2016-12-30T02:41:43.279Z,8
2016-12-30T02:42:43.285Z,9
2016-12-30T02:43:43.287Z,8
2016-12-30T02:44:43.283Z,8
2016-12-30T02:45:43.285Z,8
2016-12-30T02:46:43.283Z,8
2016-12-30T02:47:43.286Z,8
2016-12-30T02:48:43.290Z,8
2016-12-30T02:49:43.288Z,8
2016-12-30T02:50:43.290Z,9
2016-12-30T02:51:43.290Z,9
2016-12-30T02:52:43.289Z,9
2016-12-30T02:53:43.296Z,9
2016-12-30T02:54:43.301Z,9
2016-12-30T02:55:43.296Z,8
2016-12-30T02:56:43.296Z,9
2016-12-30T02:57:43.302Z,8
2016-12-30T02:58:43.308Z,8
2016-12-30T02:59:43.301Z,9
2016-12-30T03:00:43.303Z,8
2016-12-30T03:01:43.301Z,9
2016-12-30T03:02:43.304Z,8
2016-12-30T03:03:43.314Z,8
2016-12-30T03:04:43.303Z,8
2016-12-30T03:05:43.310Z,8
2016-12-30T03:06:43.316Z,8
2016-12-30T03:07:43.309Z,8
2016-12-30T03:08:43.314Z,7
2016-12-30T03:09:43.308Z,8
2016-12-30T03:10:43.314Z,8
2016-12-30T03:11:43.306Z,8
2016-12-30T03:12:43.312Z,8
2016-12-30T03:13:43.320Z,8
2016-12-30T03:14:43.324Z,8
2016-12-30T03:15:43.315Z,8
2016-12-30T03:16:43.319Z,8
2016-12-30T03:17:43.315Z,8
2016-12-30T03:18:43.321Z,8
2016-12-30T03:19:43.320Z,9
2016-12-30T03:20:43.321Z,8
2016-12-30T03:21:43.321Z,7
2016-12-30T03:22:43.321Z,8
2016-12-30T03:23:43.344Z,8
2016-12-30T03:24:43.323Z,8
2016-12-30T03:25:43.332Z,8
2016-12-30T03:26:43.323Z,8
2016-12-30T03:27:43.331Z,8
2016-12-30T03:28:43.334Z,8
2016-12-30T03:29:43.340Z,9
2016-12-30T03:30:43.333Z,9
2016-12-30T03:31:43.329Z,8
2016-12-30T03:32:43.355Z,9
2016-12-30T03:33:43.338Z,8
2016-12-30T03:34:43.335Z,8
2016-12-30T03:35:43.336Z,8
2016-12-30T03:36:43.331Z,8
2016-12-30T03:37:43.336Z,8
2016-12-30T03:38:43.343Z,8
2016-12-30T03:39:43.339Z,8
2016-12-30T03:40:43.342Z,8
2016-12-30T03:41:43.336Z,8
2016-12-30T03:42:43.341Z,8
2016-12-30T03:43:43.340Z,9
2016-12-30T03:44:43.340Z,9
2016-12-30T03:45:43.341Z,9
2016-12-30T03:46:43.348Z,9
2016-12-30T03:47:43.349Z,8
2016-12-30T03:48:43.346Z,9
2016-12-30T03:49:43.353Z,8
2016-12-30T03:50:43.362Z,7
2016-12-30T03:51:43.347Z,8
2016-12-30T03:52:43.354Z,8
2016-12-30T03:53:43.362Z,8
2016-12-30T03:54:43.354Z,8
2016-12-30T03:55:43.361Z,8
2016-12-30T03:56:43.352Z,8
2016-12-30T03:57:43.354Z,8
2016-12-30T03:58:43.371Z,8
2016-12-30T03:59:43.365Z,8
2016-12-30T04:00:43.357Z,7
2016-12-30T04:01:43.361Z,8
2016-12-30T04:02:43.357Z,8
2016-12-30T04:03:43.370Z,8
2016-12-30T04:04:43.367Z,8
2016-12-30T04:05:43.369Z,7
2016-12-30T04:06:43.380Z,8
2016-12-30T04:07:43.373Z,8
2016-12-30T04:08:43.366Z,8
2016-12-30T04:09:43.372Z,8
2016-12-30T04:10:43.366Z,8
2016-12-30T04:11:43.391Z,8
2016-12-30T04:12:43.370Z,8
2016-12-30T04:13:43.368Z,8
2016-12-30T04:14:43.376Z,8
2016-12-30T04:15:43.372Z,8
2016-12-30T04:16:43.375Z,8
2016-12-30T04:17:43.382Z,8
2016-12-30T04:18:43.402Z,9
2016-12-30T04:19:43.380Z,8
2016-12-30T04:20:43.377Z,8
2016-12-30T04:21:43.378Z,8
2016-12-30T04:22:43.385Z,7
2016-12-30T04:23:43.377Z,8
2016-12-30T04:24:43.384Z,8
2016-12-30T04:25:43.377Z,8
2016-12-30T04:26:43.383Z,8
2016-12-30T04:27:43.391Z,8
2016-12-30T04:28:43.383Z,8
2016-12-30T04:29:43.390Z,8
2016-12-30T04:30:43.385Z,8
2016-12-30T04:31:43.393Z,8
2016-12-30T04:32:43.388Z,7
2016-12-30T04:33:43.391Z,8
2016-12-30T04:34:43.396Z,8
2016-12-30T04:35:43.389Z,8
2016-12-30T04:36:43.395Z,8
2016-12-30T04:37:43.399Z,8
2016-12-30T04:38:43.426Z,8
2016-12-30T04:39:43.400Z,8
2016-12-30T04:40:43.395Z,9
2016-12-30T04:41:43.400Z,8
2016-12-30T04:42:43.406Z,9
2016-12-30T04:43:43.399Z,8
2016-12-30T04:44:43.433Z,8
2016-12-30T04:45:43.404Z,8
2016-12-30T04:46:43.407Z,8
2016-12-30T04:47:43.406Z,8
2016-12-30T04:48:43.406Z,7
2016-12-30T04:49:43.406Z,8
2016-12-30T04:50:43.412Z,8
2016-12-30T04:51:43.411Z,8
2016-12-30T04:52:43.411Z,8
2016-12-30T04:53:43.418Z,8
2016-12-30T04:54:43.410Z,8
2016-12-30T04:55:43.411Z,8
2016-12-30T04:56:43.417Z,8
2016-12-30T04:57:43.415Z,8
2016-12-30T04:58:43.416Z,8
2016-12-30T04:59:43.420Z,8
2016-12-30T05:00:43.420Z,8
2016-12-30T05:01:43.418Z,9
2016-12-30T05:02:43.420Z,8
2016-12-30T05:03:43.427Z,8
2016-12-30T05:04:43.419Z,8
2016-12-30T05:05:43.428Z,8
2016-12-30T05:06:43.423Z,7
2016-12-30T05:07:43.430Z,8
2016-12-30T05:08:43.420Z,8
2016-12-30T05:09:43.427Z,8
2016-12-30T05:10:43.436Z,8
2016-12-30T05:11:43.425Z,8
2016-12-30T05:12:43.434Z,8
2016-12-30T05:13:43.426Z,8
2016-12-30T05:14:43.433Z,8
2016-12-30T05:15:43.440Z,8
2016-12-30T05:16:43.433Z,8
2016-12-30T05:17:43.443Z,8
2016-12-30T05:18:43.434Z,8
2016-12-30T05:19:43.434Z,8
2016-12-30T05:20:43.440Z,8
2016-12-30T05:21:43.447Z,7
2016-12-30T05:22:43.443Z,8
2016-12-30T05:23:43.446Z,7
2016-12-30T05:24:43.438Z,8
2016-12-30T05:25:43.445Z,8
2016-12-30T05:26:43.452Z,8
2016-12-30T05:27:43.453Z,7
2016-12-30T05:28:43.446Z,8
2016-12-30T05:29:43.444Z,8
2016-12-30T05:30:43.462Z,8
2016-12-30T05:31:43.456Z,8
2016-12-30T05:32:43.450Z,7
2016-12-30T05:33:43.457Z,8
2016-12-30T05:34:43.468Z,7
2016-12-30T05:35:43.459Z,8
2016-12-30T05:36:43.451Z,8
2016-12-30T05:37:43.458Z,8
2016-12-30T05:38:43.461Z,7
2016-12-30T05:39:43.456Z,8
2016-12-30T05:40:43.464Z,8
2016-12-30T05:41:43.463Z,7
2016-12-30T05:42:43.477Z,8
2016-12-30T05:43:43.459Z,8
2016-12-30T05:44:43.462Z,8
2016-12-30T05:45:43.465Z,8
2016-12-30T05:46:43.472Z,8
2016-12-30T05:47:43.470Z,8
2016-12-30T05:48:43.471Z,8
2016-12-30T05:49:43.467Z,8
2016-12-30T05:50:43.467Z,7
2016-12-30T05:51:43.478Z,8
2016-12-30T05:52:43.475Z,8
2016-12-30T05:53:43.479Z,7
2016-12-30T05:54:43.480Z,7
2016-12-30T05:55:43.479Z,8
2016-12-30T05:56:43.480Z,8
2016-12-30T05:57:43.483Z,8
2016-12-30T05:58:43.475Z,8
2016-12-30T05:59:43.490Z,7
2016-12-30T06:00:43.483Z,8
2016-12-30T06:01:43.482Z,8
2016-12-30T06:02:43.486Z,8
2016-12-30T06:03:43.479Z,8
2016-12-30T06:04:43.486Z,8
2016-12-30T06:05:43.493Z,9
2016-12-30T06:06:43.504Z,8
2016-12-30T06:07:43.502Z,8
2016-12-30T06:08:43.496Z,8
2016-12-30T06:09:43.503Z,7
2016-12-30T06:10:43.484Z,7
2016-12-30T06:11:43.491Z,8
2016-12-30T06:12:43.497Z,8
2016-12-30T06:13:43.505Z,7
2016-12-30T06:14:43.494Z,8
2016-12-30T06:15:43.502Z,8
2016-12-30T06:16:43.499Z,8
2016-12-30T06:17:43.499Z,7
2016-12-30T06:18:43.506Z,8
2016-12-30T06:19:43.507Z,8
2016-12-30T06:20:43.503Z,8
2016-12-30T06:21:43.500Z,8
2016-12-30T06:22:43.506Z,8
2016-12-30T06:23:43.498Z,8
2016-12-30T06:24:43.507Z,8
2016-12-30T06:25:43.510Z,7
2016-12-30T06:26:43.505Z,8
2016-12-30T06:27:43.513Z,8
2016-12-30T06:28:43.516Z,8
2016-12-30T06:29:43.510Z,7
2016-12-30T06:30:43.515Z,8
2016-12-30T06:31:43.512Z,8
2016-12-30T06:32:43.530Z,7
2016-12-30T06:33:43.506Z,8
2016-12-30T06:34:43.514Z,7
2016-12-30T06:35:43.509Z,8
2016-12-30T06:36:43.511Z,8
2016-12-30T06:37:43.519Z,8
2016-12-30T06:38:43.525Z,8
2016-12-30T06:39:43.520Z,8
2016-12-30T06:40:43.516Z,8
2016-12-30T06:41:43.518Z,8
2016-12-30T06:42:43.530Z,7
2016-12-30T06:43:43.532Z,8
2016-12-30T06:44:43.521Z,8
2016-12-30T06:45:43.519Z,8
2016-12-30T06:46:43.527Z,8
2016-12-30T06:47:43.527Z,8
2016-12-30T06:48:43.526Z,7
2016-12-30T06:49:43.526Z,7
2016-12-30T06:50:43.539Z,8
2016-12-30T06:51:43.528Z,8
2016-12-30T06:52:43.535Z,7
2016-12-30T06:53:43.537Z,8
2016-12-30T06:54:43.532Z,7
2016-12-30T06:55:43.541Z,7
2016-12-30T06:56:43.534Z,8
2016-12-30T06:57:43.535Z,7
2016-12-30T06:58:43.542Z,7
2016-12-30T06:59:43.534Z,8
2016-12-30T07:00:43.539Z,7
2016-12-30T07:01:43.533Z,7
2016-12-30T07:02:43.539Z,7
2016-12-30T07:03:43.544Z,8
2016-12-30T07:04:43.541Z,8
2016-12-30T07:05:43.543Z,7
2016-12-30T07:06:43.549Z,7
2016-12-30T07:07:43.543Z,7
2016-12-30T07:08:43.548Z,8
2016-12-30T07:09:43.553Z,8
2016-12-30T07:10:43.548Z,7
2016-12-30T07:11:43.550Z,7
2016-12-30T07:12:43.545Z,8
2016-12-30T07:13:43.550Z,8
2016-12-30T07:14:43.557Z,8
2016-12-30T07:15:43.551Z,8
2016-12-30T07:16:43.556Z,7
2016-12-30T07:17:43.552Z,8
2016-12-30T07:18:43.558Z,7
2016-12-30T07:19:43.557Z,8
2016-12-30T07:20:43.557Z,7
2016-12-30T07:21:43.555Z,8
2016-12-30T07:22:43.565Z,8
2016-12-30T07:23:43.570Z,8
2016-12-30T07:24:43.559Z,7
2016-12-30T07:25:43.565Z,7
2016-12-30T07:26:43.559Z,7
2016-12-30T07:27:43.565Z,7
2016-12-30T07:28:43.560Z,8
2016-12-30T07:29:43.564Z,8
2016-12-30T07:30:43.570Z,7
2016-12-30T07:31:43.562Z,8
2016-12-30T07:32:43.568Z,8
2016-12-30T07:33:43.565Z,8
2016-12-30T07:34:43.569Z,7
2016-12-30T07:35:43.577Z,7
2016-12-30T07:36:43.568Z,7
2016-12-30T07:37:43.575Z,8
2016-12-30T07:38:43.579Z,8
2016-12-30T07:39:43.574Z,8
2016-12-30T07:40:43.578Z,7
2016-12-30T07:41:43.585Z,8
2016-12-30T07:42:43.578Z,7
2016-12-30T07:43:43.579Z,8
2016-12-30T07:44:43.584Z,8
2016-12-30T07:45:43.585Z,8
2016-12-30T07:46:43.584Z,8
2016-12-30T07:47:43.586Z,7
2016-12-30T07:48:43.583Z,7
2016-12-30T07:49:43.584Z,8
2016-12-30T07:50:43.584Z,8
2016-12-30T07:51:43.582Z,7
2016-12-30T07:52:43.596Z,8
2016-12-30T07:53:43.587Z,7
2016-12-30T07:54:43.587Z,7
2016-12-30T07:55:43.588Z,7
2016-12-30T07:56:43.588Z,8
2016-12-30T07:57:43.594Z,7
2016-12-30T07:58:43.643Z,8
2016-12-30T07:59:43.591Z,7
2016-12-30T08:00:43.605Z,7
2016-12-30T08:01:43.594Z,9
2016-12-30T08:02:43.602Z,8
2016-12-30T08:03:43.601Z,7
2016-12-30T08:04:43.599Z,8
2016-12-30T08:05:43.598Z,8
2016-12-30T08:06:43.603Z,7
2016-12-30T08:07:43.603Z,8
2016-12-30T08:08:43.601Z,7
2016-12-30T08:09:43.608Z,7
2016-12-30T08:10:43.601Z,7
2016-12-30T08:11:43.605Z,7
2016-12-30T08:12:43.613Z,7
2016-12-30T08:13:43.606Z,7
2016-12-30T08:14:43.611Z,7
2016-12-30T08:15:43.618Z,7
2016-12-30T08:16:43.612Z,8
2016-12-30T08:17:43.618Z,8
2016-12-30T08:18:43.612Z,7
2016-12-30T08:19:43.618Z,7
2016-12-30T08:20:43.610Z,7
2016-12-30T08:21:43.616Z,7
2016-12-30T08:22:43.620Z,7
2016-12-30T08:23:43.616Z,8
2016-12-30T08:24:43.623Z,7
2016-12-30T08:25:43.629Z,7
2016-12-30T08:26:43.626Z,7
2016-12-30T08:27:43.620Z,7
2016-12-30T08:28:43.623Z,7
2016-12-30T08:29:43.633Z,7
2016-12-30T08:30:43.634Z,7
2016-12-30T08:31:43.632Z,7
2016-12-30T08:32:43.623Z,8
2016-12-30T08:33:43.640Z,7
2016-12-30T08:34:43.637Z,7
2016-12-30T08:35:43.637Z,7
2016-12-30T08:36:43.635Z,8
2016-12-30T08:37:43.637Z,8
2016-12-30T08:38:43.632Z,7
2016-12-30T08:39:43.643Z,8
2016-12-30T08:40:43.644Z,7
2016-12-30T08:41:43.638Z,7
2016-12-30T08:42:43.642Z,7
2016-12-30T08:43:43.644Z,7
2016-12-30T08:44:43.647Z,7
2016-12-30T08:45:43.642Z,7
2016-12-30T08:46:43.649Z,8
2016-12-30T08:47:43.686Z,7
2016-12-30T08:48:43.647Z,7
2016-12-30T08:49:43.649Z,7
2016-12-30T08:50:43.645Z,7
2016-12-30T08:51:43.669Z,7
2016-12-30T08:52:43.656Z,7
2016-12-30T08:53:43.662Z,7
2016-12-30T08:54:43.646Z,7
2016-12-30T08:55:43.660Z,8
2016-12-30T08:56:43.652Z,8
2016-12-30T08:57:43.659Z,7
2016-12-30T08:58:43.652Z,8
2016-12-30T08:59:43.664Z,8
2016-12-30T09:00:43.656Z,7
2016-12-30T09:01:43.665Z,7
2016-12-30T09:02:43.662Z,7
2016-12-30T09:03:43.658Z,8
2016-12-30T09:04:43.665Z,7
2016-12-30T09:05:43.658Z,7
2016-12-30T09:06:43.666Z,7
2016-12-30T09:07:43.679Z,8
2016-12-30T09:08:43.671Z,7
2016-12-30T09:09:43.668Z,7
2016-12-30T09:10:43.668Z,7
2016-12-30T09:11:43.660Z,7
2016-12-30T09:12:43.664Z,8
2016-12-30T09:13:43.669Z,7
2016-12-30T09:14:43.664Z,7
2016-12-30T09:15:43.669Z,7
2016-12-30T09:16:43.668Z,8
2016-12-30T09:17:43.669Z,8
2016-12-30T09:18:43.678Z,8
2016-12-30T09:19:43.674Z,7
2016-12-30T09:20:43.678Z,7
2016-12-30T09:21:43.684Z,7
2016-12-30T09:22:43.672Z,7
2016-12-30T09:23:43.683Z,7
2016-12-30T09:24:43.689Z,7
2016-12-30T09:25:43.683Z,7
2016-12-30T09:26:43.688Z,7
2016-12-30T09:27:43.693Z,8
2016-12-30T09:28:43.700Z,7
2016-12-30T09:29:43.693Z,7
2016-12-30T09:30:43.705Z,7
2016-12-30T09:31:43.696Z,7
2016-12-30T09:32:43.702Z,7
2016-12-30T09:33:43.694Z,7
2016-12-30T09:34:43.685Z,7
2016-12-30T09:35:43.686Z,7
2016-12-30T09:36:43.693Z,7
2016-12-30T09:37:43.704Z,7
2016-12-30T09:38:43.734Z,7
2016-12-30T09:39:43.702Z,7
2016-12-30T09:40:43.694Z,8
2016-12-30T09:41:43.701Z,7
2016-12-30T09:42:43.693Z,7
2016-12-30T09:43:43.700Z,7
2016-12-30T09:44:43.708Z,7
2016-12-30T09:45:43.714Z,8
2016-12-30T09:46:43.702Z,7
2016-12-30T09:47:43.705Z,7
2016-12-30T09:48:43.709Z,7
2016-12-30T09:49:43.697Z,7
2016-12-30T09:50:43.702Z,7
2016-12-30T09:51:43.709Z,7
2016-12-30T09:52:43.707Z,8
2016-12-30T09:53:43.741Z,7
2016-12-30T09:54:43.716Z,7
2016-12-30T09:55:43.727Z,7
2016-12-30T09:56:43.715Z,7
2016-12-30T09:57:43.722Z,7
2016-12-30T09:58:43.720Z,7
2016-12-30T09:59:43.717Z,6
2016-12-30T10:00:43.717Z,7
2016-12-30T10:01:43.712Z,7
2016-12-30T10:02:43.715Z,7
2016-12-30T10:03:43.722Z,7
2016-12-30T10:04:43.717Z,7
2016-12-30T10:05:43.719Z,7
2016-12-30T10:06:43.722Z,7
2016-12-30T10:07:43.727Z,7
2016-12-30T10:08:43.734Z,8
2016-12-30T10:09:43.735Z,7
2016-12-30T10:10:43.739Z,7
2016-12-30T10:11:43.722Z,7
2016-12-30T10:12:43.724Z,7
2016-12-30T10:13:43.731Z,7
2016-12-30T10:14:43.734Z,7
2016-12-30T10:15:43.769Z,8
2016-12-30T10:16:43.747Z,8
2016-12-30T10:17:43.736Z,7
2016-12-30T10:18:43.737Z,7
2016-12-30T10:19:43.742Z,7
2016-12-30T10:20:43.744Z,7
2016-12-30T10:21:43.743Z,7
2016-12-30T10:22:43.739Z,8
2016-12-30T10:23:43.733Z,7
2016-12-30T10:24:43.742Z,8
2016-12-30T10:25:43.743Z,7
2016-12-30T10:26:43.747Z,7
2016-12-30T10:27:43.749Z,7
2016-12-30T10:28:43.737Z,7
2016-12-30T10:29:43.741Z,8
2016-12-30T10:30:43.741Z,7
2016-12-30T10:31:43.742Z,8
2016-12-30T10:32:43.768Z,7
2016-12-30T10:33:43.744Z,7
2016-12-30T10:34:43.777Z,7
2016-12-30T10:35:43.751Z,7
2016-12-30T10:36:43.743Z,8
2016-12-30T10:37:43.751Z,8
2016-12-30T10:38:43.753Z,7
2016-12-30T10:39:43.751Z,8
2016-12-30T10:40:43.752Z,8
2016-12-30T10:41:43.756Z,7
2016-12-30T10:42:43.756Z,8
2016-12-30T10:43:43.757Z,7
2016-12-30T10:44:43.751Z,7
2016-12-30T10:45:43.755Z,7
2016-12-30T10:46:43.760Z,7
2016-12-30T10:47:43.816Z,8
2016-12-30T10:48:43.761Z,7
2016-12-30T10:49:43.758Z,7
2016-12-30T10:50:43.760Z,7
2016-12-30T10:51:43.768Z,7
2016-12-30T10:52:43.760Z,7
2016-12-30T10:53:43.765Z,7
2016-12-30T10:54:43.774Z,7
2016-12-30T10:55:43.766Z,8
2016-12-30T10:56:43.768Z,7
2016-12-30T10:57:43.775Z,7
2016-12-30T10:58:43.772Z,7
2016-12-30T10:59:43.793Z,8
2016-12-30T11:00:43.773Z,8
2016-12-30T11:01:43.774Z,8
2016-12-30T11:02:43.773Z,7
2016-12-30T11:03:43.771Z,7
2016-12-30T11:04:43.771Z,7
2016-12-30T11:05:43.781Z,7
2016-12-30T11:06:43.779Z,7
2016-12-30T11:07:43.778Z,8
2016-12-30T11:08:43.786Z,7
2016-12-30T11:09:43.789Z,7
2016-12-30T11:10:43.813Z,8
2016-12-30T11:11:43.811Z,8
2016-12-30T11:12:43.795Z,8
2016-12-30T11:13:43.791Z,8
2016-12-30T11:14:43.791Z,8
2016-12-30T11:15:43.788Z,9
2016-12-30T11:16:43.788Z,8
2016-12-30T11:17:43.788Z,8
2016-12-30T11:18:43.787Z,8
2016-12-30T11:19:43.790Z,7
2016-12-30T11:20:43.801Z,8
2016-12-30T11:21:43.786Z,8
2016-12-30T11:22:43.809Z,8
2016-12-30T11:23:43.792Z,8
2016-12-30T11:24:43.799Z,8
2016-12-30T11:25:43.790Z,8
2016-12-30T11:26:43.791Z,8
2016-12-30T11:27:43.795Z,9
2016-12-30T11:28:43.795Z,8
2016-12-30T11:29:43.804Z,9
2016-12-30T11:30:43.799Z,7
2016-12-30T11:31:43.797Z,8
2016-12-30T11:32:43.802Z,8
2016-12-30T11:33:43.808Z,8
2016-12-30T11:34:43.817Z,8
2016-12-30T11:35:43.806Z,9
2016-12-30T11:36:43.817Z,8
2016-12-30T11:37:43.815Z,9
2016-12-30T11:38:43.807Z,10
2016-12-30T11:39:43.834Z,9
2016-12-30T11:40:43.812Z,9
2016-12-30T11:41:43.808Z,9
2016-12-30T11:42:43.810Z,8
2016-12-30T11:43:43.811Z,9
2016-12-30T11:44:43.832Z,9
2016-12-30T11:45:43.811Z,8
2016-12-30T11:46:43.814Z,8
2016-12-30T11:47:43.813Z,9
2016-12-30T11:48:43.814Z,9
2016-12-30T11:49:43.873Z,8
2016-12-30T11:50:43.823Z,8
2016-12-30T11:51:43.822Z,8
2016-12-30T11:52:43.821Z,8
2016-12-30T11:53:43.825Z,9
2016-12-30T11:54:43.840Z,8
2016-12-30T11:55:43.826Z,8
2016-12-30T11:56:43.845Z,8
2016-12-30T11:57:43.824Z,9
2016-12-30T11:58:43.829Z,9
2016-12-30T11:59:43.853Z,8
2016-12-30T12:00:43.829Z,9
2016-12-30T12:01:43.826Z,10
2016-12-30T12:02:43.830Z,9
2016-12-30T12:03:43.834Z,10
2016-12-30T12:04:43.856Z,9
2016-12-30T12:05:43.847Z,9
2016-12-30T12:07:42.370Z,17
2016-12-30T12:09:52.712Z,0
2016-12-30T12:10:52.693Z,23
2016-12-30T12:11:52.695Z,23
2016-12-30T12:12:52.724Z,21
2016-12-30T12:13:52.698Z,22
2016-12-30T12:14:52.703Z,20
2016-12-30T12:15:52.696Z,22
2016-12-30T12:16:52.693Z,20
2016-12-30T12:17:52.695Z,20
2016-12-30T12:18:52.701Z,21
2016-12-30T12:19:52.709Z,20
2016-12-30T12:20:52.705Z,22
2016-12-30T12:21:52.699Z,20
2016-12-30T12:22:52.734Z,20
2016-12-30T12:23:52.709Z,19
2016-12-30T12:24:52.727Z,20
2016-12-30T12:25:52.699Z,20
2016-12-30T12:26:52.706Z,19
2016-12-30T12:27:52.715Z,20
2016-12-30T12:28:52.708Z,19
2016-12-30T12:29:52.740Z,18
2016-12-30T12:30:52.724Z,20
2016-12-30T12:31:52.709Z,19
2016-12-30T12:32:52.719Z,18
2016-12-30T12:33:52.724Z,18
2016-12-30T12:34:52.848Z,19
2016-12-30T12:35:52.731Z,20
2016-12-30T12:36:52.731Z,19
2016-12-30T12:37:52.723Z,19
2016-12-30T12:38:52.722Z,19
2016-12-30T12:39:52.745Z,19
2016-12-30T12:40:52.723Z,19
2016-12-30T12:41:52.728Z,17
2016-12-30T12:42:52.721Z,18
2016-12-30T12:43:52.727Z,18
2016-12-30T12:44:52.737Z,17
2016-12-30T12:45:52.724Z,17
2016-12-30T12:46:52.734Z,17
2016-12-30T12:47:52.728Z,17
2016-12-30T12:48:52.734Z,17
2016-12-30T12:49:52.748Z,17
2016-12-30T12:50:52.733Z,16
2016-12-30T12:51:52.739Z,17
2016-12-30T12:52:52.736Z,16
2016-12-30T12:53:52.740Z,16
2016-12-30T12:54:52.751Z,17
2016-12-30T12:55:52.740Z,16
2016-12-30T12:56:52.753Z,16
2016-12-30T12:57:52.739Z,16
2016-12-30T12:58:52.746Z,15
2016-12-30T12:59:52.753Z,17
2016-12-30T13:00:52.742Z,15
2016-12-30T13:01:52.739Z,14
2016-12-30T13:02:52.743Z,15
2016-12-30T13:03:52.752Z,14
2016-12-30T13:04:52.757Z,14
2016-12-30T13:05:52.748Z,15
2016-12-30T13:06:52.752Z,15
2016-12-30T13:07:52.749Z,14
2016-12-30T13:08:52.764Z,14
2016-12-30T13:09:52.790Z,15
2016-12-30T13:10:52.753Z,14
2016-12-30T13:11:52.753Z,13
2016-12-30T13:12:52.770Z,13
2016-12-30T13:13:52.748Z,14
2016-12-30T13:14:52.765Z,14
2016-12-30T13:15:52.762Z,14
2016-12-30T13:16:52.755Z,14
2016-12-30T13:17:52.756Z,13
2016-12-30T13:18:52.756Z,13
2016-12-30T13:19:52.777Z,13
2016-12-30T13:20:52.766Z,13
2016-12-30T13:21:52.757Z,13
2016-12-30T13:22:52.792Z,13
2016-12-30T13:23:52.769Z,13
2016-12-30T13:24:52.782Z,12
2016-12-30T13:25:52.775Z,12
2016-12-30T13:26:52.778Z,12
2016-12-30T13:27:52.768Z,13
2016-12-30T13:28:52.776Z,12
2016-12-30T13:29:52.788Z,12
2016-12-30T13:30:52.795Z,12
2016-12-30T13:31:52.780Z,12
2016-12-30T13:32:52.785Z,12
2016-12-30T13:33:52.789Z,13
2016-12-30T13:34:52.809Z,11
2016-12-30T13:35:52.785Z,12
2016-12-30T13:36:52.787Z,11
2016-12-30T13:37:52.790Z,14
2016-12-30T13:38:52.794Z,16
2016-12-30T13:39:52.820Z,23
2016-12-30T13:40:52.795Z,25
2016-12-30T13:41:52.808Z,27
2016-12-30T13:42:52.811Z,26
2016-12-30T13:43:52.814Z,28
2016-12-30T13:44:52.812Z,28
2016-12-30T13:45:52.812Z,32
2016-12-30T13:46:52.811Z,28
2016-12-30T13:47:52.803Z,33
2016-12-30T13:48:52.824Z,32
2016-12-30T13:49:52.840Z,32
2016-12-30T13:50:52.813Z,30
2016-12-30T13:51:52.817Z,27
2016-12-30T13:52:52.819Z,28
2016-12-30T13:53:52.824Z,29
2016-12-30T13:54:52.836Z,27
2016-12-30T13:55:52.829Z,28
2016-12-30T13:56:52.835Z,26
2016-12-30T13:57:52.825Z,26
2016-12-30T13:58:52.829Z,27
2016-12-30T13:59:52.857Z,26
2016-12-30T14:00:52.832Z,25
2016-12-30T14:01:52.837Z,26
2016-12-30T14:02:52.839Z,24
2016-12-30T14:03:52.849Z,23
2016-12-30T14:04:52.860Z,23
2016-12-30T14:05:52.845Z,24
2016-12-30T14:06:52.930Z,24
2016-12-30T14:07:52.839Z,25
2016-12-30T14:08:52.850Z,22
2016-12-30T14:09:52.863Z,25
2016-12-30T14:10:52.918Z,23
2016-12-30T14:11:52.854Z,23
2016-12-30T14:12:52.861Z,22
2016-12-30T14:13:52.999Z,22
2016-12-30T14:14:52.875Z,23
2016-12-30T14:15:53.190Z,20
2016-12-30T14:16:52.868Z,21
2016-12-30T14:17:52.901Z,20
2016-12-30T14:18:52.874Z,22
2016-12-30T14:19:53.457Z,22
2016-12-30T14:20:52.878Z,20
2016-12-30T14:21:52.890Z,20
2016-12-30T14:22:52.970Z,20
2016-12-30T14:23:52.876Z,20
2016-12-30T14:24:52.890Z,20
2016-12-30T14:25:52.877Z,19
2016-12-30T14:26:53.006Z,19
2016-12-30T14:27:52.882Z,20
2016-12-30T14:28:52.885Z,20
2016-12-30T14:29:52.906Z,19
2016-12-30T14:30:52.885Z,18
2016-12-30T14:31:52.893Z,18
2016-12-30T14:32:52.897Z,20
2016-12-30T14:33:52.893Z,18
2016-12-30T14:34:53.101Z,18
2016-12-30T14:35:52.905Z,19
2016-12-30T14:36:52.913Z,19
2016-12-30T14:37:52.915Z,17
2016-12-30T14:38:52.905Z,16
2016-12-30T14:39:53.035Z,16
2016-12-30T14:40:52.908Z,17
2016-12-30T14:41:52.913Z,16
2016-12-30T14:42:52.915Z,16